sensor_id;sensor_type;location;lat;lon;timestamp;temperature;humidity
25953;DHT22;13750;50.804;8.764;2023-07-22T00:02:11;14.70;77.40
25953;DHT22;13750;50.804;8.764;2023-07-22T00:04:36;14.60;77.40
25953;DHT22;13750;50.804;8.764;2023-07-22T00:07:03;14.60;77.40
25953;DHT22;13750;50.804;8.764;2023-07-22T00:09:29;14.60;77.40
25953;DHT22;13750;50.804;8.764;2023-07-22T00:11:54;14.60;77.60
25953;DHT22;13750;50.804;8.764;2023-07-22T00:14:20;14.60;77.60
25953;DHT22;13750;50.804;8.764;2023-07-22T00:16:45;14.60;77.70
25953;DHT22;13750;50.804;8.764;2023-07-22T00:19:11;14.50;77.60
25953;DHT22;13750;50.804;8.764;2023-07-22T00:21:36;14.40;77.80
25953;DHT22;13750;50.804;8.764;2023-07-22T00:24:02;14.40;78.10
25953;DHT22;13750;50.804;8.764;2023-07-22T00:26:27;14.30;78.30
25953;DHT22;13750;50.804;8.764;2023-07-22T00:28:53;14.30;78.30
25953;DHT22;13750;50.804;8.764;2023-07-22T00:31:19;14.30;78.20
25953;DHT22;13750;50.804;8.764;2023-07-22T00:33:44;14.40;78.30
25953;DHT22;13750;50.804;8.764;2023-07-22T00:36:10;14.40;78.20
25953;DHT22;13750;50.804;8.764;2023-07-22T00:38:35;14.30;78.30
25953;DHT22;13750;50.804;8.764;2023-07-22T00:41:01;14.30;78.60
25953;DHT22;13750;50.804;8.764;2023-07-22T00:43:30;14.30;78.40
25953;DHT22;13750;50.804;8.764;2023-07-22T00:45:55;14.30;78.40
25953;DHT22;13750;50.804;8.764;2023-07-22T00:48:21;14.20;78.50
25953;DHT22;13750;50.804;8.764;2023-07-22T00:50:47;14.20;78.60
25953;DHT22;13750;50.804;8.764;2023-07-22T00:53:13;14.20;78.50
25953;DHT22;13750;50.804;8.764;2023-07-22T00:55:39;14.20;78.50
25953;DHT22;13750;50.804;8.764;2023-07-22T00:58:06;14.20;78.30
25953;DHT22;13750;50.804;8.764;2023-07-22T01:00:31;14.20;78.20
25953;DHT22;13750;50.804;8.764;2023-07-22T01:02:58;14.10;78.30
25953;DHT22;13750;50.804;8.764;2023-07-22T01:05:24;14.10;78.40
25953;DHT22;13750;50.804;8.764;2023-07-22T01:07:51;14.10;78.40
25953;DHT22;13750;50.804;8.764;2023-07-22T01:10:17;14.10;78.60
25953;DHT22;13750;50.804;8.764;2023-07-22T01:12:43;14.10;78.50
25953;DHT22;13750;50.804;8.764;2023-07-22T01:15:10;14.00;78.40
25953;DHT22;13750;50.804;8.764;2023-07-22T01:17:38;14.00;78.30
25953;DHT22;13750;50.804;8.764;2023-07-22T01:20:05;13.90;78.30
25953;DHT22;13750;50.804;8.764;2023-07-22T01:22:36;13.90;78.50
25953;DHT22;13750;50.804;8.764;2023-07-22T01:25:02;13.90;78.40
25953;DHT22;13750;50.804;8.764;2023-07-22T01:27:28;13.80;78.40
25953;DHT22;13750;50.804;8.764;2023-07-22T01:29:54;13.80;78.20
25953;DHT22;13750;50.804;8.764;2023-07-22T01:32:19;13.80;78.10
25953;DHT22;13750;50.804;8.764;2023-07-22T01:34:48;13.70;78.00
25953;DHT22;13750;50.804;8.764;2023-07-22T01:37:13;13.70;77.90
25953;DHT22;13750;50.804;8.764;2023-07-22T01:39:39;13.60;78.20
25953;DHT22;13750;50.804;8.764;2023-07-22T01:42:04;13.70;78.20
25953;DHT22;13750;50.804;8.764;2023-07-22T01:44:30;13.60;78.00
25953;DHT22;13750;50.804;8.764;2023-07-22T01:46:56;13.60;78.00
25953;DHT22;13750;50.804;8.764;2023-07-22T01:49:21;13.60;78.10
25953;DHT22;13750;50.804;8.764;2023-07-22T01:51:49;13.50;78.00
25953;DHT22;13750;50.804;8.764;2023-07-22T01:54:15;13.50;78.10
25953;DHT22;13750;50.804;8.764;2023-07-22T01:56:40;13.50;78.20
25953;DHT22;13750;50.804;8.764;2023-07-22T01:59:06;13.40;78.20
25953;DHT22;13750;50.804;8.764;2023-07-22T02:01:32;13.40;78.30
25953;DHT22;13750;50.804;8.764;2023-07-22T02:03:58;13.50;78.30
25953;DHT22;13750;50.804;8.764;2023-07-22T02:06:23;13.50;78.20
25953;DHT22;13750;50.804;8.764;2023-07-22T02:08:49;13.40;78.10
25953;DHT22;13750;50.804;8.764;2023-07-22T02:11:16;13.40;78.10
25953;DHT22;13750;50.804;8.764;2023-07-22T02:13:42;13.40;78.00
25953;DHT22;13750;50.804;8.764;2023-07-22T02:16:07;13.30;77.90
25953;DHT22;13750;50.804;8.764;2023-07-22T02:18:37;13.30;77.90
25953;DHT22;13750;50.804;8.764;2023-07-22T02:21:02;13.30;78.00
25953;DHT22;13750;50.804;8.764;2023-07-22T02:23:28;13.30;78.00
25953;DHT22;13750;50.804;8.764;2023-07-22T02:25:54;13.30;78.00
25953;DHT22;13750;50.804;8.764;2023-07-22T02:28:20;13.20;77.90
25953;DHT22;13750;50.804;8.764;2023-07-22T02:30:51;13.20;77.70
25953;DHT22;13750;50.804;8.764;2023-07-22T02:33:18;13.10;77.90
25953;DHT22;13750;50.804;8.764;2023-07-22T02:35:44;13.10;77.90
25953;DHT22;13750;50.804;8.764;2023-07-22T02:38:10;13.10;77.90
25953;DHT22;13750;50.804;8.764;2023-07-22T02:40:36;13.10;78.10
25953;DHT22;13750;50.804;8.764;2023-07-22T02:43:01;13.10;78.30
25953;DHT22;13750;50.804;8.764;2023-07-22T02:45:27;13.10;78.30
25953;DHT22;13750;50.804;8.764;2023-07-22T02:47:53;13.10;78.20
25953;DHT22;13750;50.804;8.764;2023-07-22T02:50:19;13.00;78.10
25953;DHT22;13750;50.804;8.764;2023-07-22T02:52:44;13.10;78.20
25953;DHT22;13750;50.804;8.764;2023-07-22T02:55:13;13.00;78.20
25953;DHT22;13750;50.804;8.764;2023-07-22T02:57:39;13.00;78.00
25953;DHT22;13750;50.804;8.764;2023-07-22T03:00:06;13.00;78.10
25953;DHT22;13750;50.804;8.764;2023-07-22T03:02:33;12.90;78.30
25953;DHT22;13750;50.804;8.764;2023-07-22T03:04:59;13.00;78.20
25953;DHT22;13750;50.804;8.764;2023-07-22T03:07:25;13.00;78.20
25953;DHT22;13750;50.804;8.764;2023-07-22T03:09:52;13.00;78.20
25953;DHT22;13750;50.804;8.764;2023-07-22T03:12:18;12.90;78.10
25953;DHT22;13750;50.804;8.764;2023-07-22T03:14:43;12.90;77.90
25953;DHT22;13750;50.804;8.764;2023-07-22T03:17:09;12.90;77.80
25953;DHT22;13750;50.804;8.764;2023-07-22T03:19:35;12.90;77.80
25953;DHT22;13750;50.804;8.764;2023-07-22T03:22:01;12.80;77.80
25953;DHT22;13750;50.804;8.764;2023-07-22T03:24:26;12.80;77.80
25953;DHT22;13750;50.804;8.764;2023-07-22T03:26:52;12.70;77.80
25953;DHT22;13750;50.804;8.764;2023-07-22T03:29:17;12.70;77.80
25953;DHT22;13750;50.804;8.764;2023-07-22T03:31:43;12.70;77.80
25953;DHT22;13750;50.804;8.764;2023-07-22T03:34:08;12.60;78.10
25953;DHT22;13750;50.804;8.764;2023-07-22T03:36:34;12.60;78.40
25953;DHT22;13750;50.804;8.764;2023-07-22T03:39:00;12.60;78.80
25953;DHT22;13750;50.804;8.764;2023-07-22T03:41:26;12.60;78.90
25953;DHT22;13750;50.804;8.764;2023-07-22T03:43:51;12.60;78.80
25953;DHT22;13750;50.804;8.764;2023-07-22T03:46:17;12.60;78.70
25953;DHT22;13750;50.804;8.764;2023-07-22T03:48:43;12.60;78.60
25953;DHT22;13750;50.804;8.764;2023-07-22T03:51:08;12.60;78.50
25953;DHT22;13750;50.804;8.764;2023-07-22T03:53:34;12.60;78.60
25953;DHT22;13750;50.804;8.764;2023-07-22T03:55:59;12.60;78.40
25953;DHT22;13750;50.804;8.764;2023-07-22T03:58:25;12.60;78.30
25953;DHT22;13750;50.804;8.764;2023-07-22T04:00:50;12.60;78.10
25953;DHT22;13750;50.804;8.764;2023-07-22T04:03:16;12.60;78.20
25953;DHT22;13750;50.804;8.764;2023-07-22T04:05:42;12.60;78.10
25953;DHT22;13750;50.804;8.764;2023-07-22T04:08:07;12.60;78.10
25953;DHT22;13750;50.804;8.764;2023-07-22T04:10:33;12.60;78.00
25953;DHT22;13750;50.804;8.764;2023-07-22T04:12:58;12.60;78.10
25953;DHT22;13750;50.804;8.764;2023-07-22T04:15:24;12.60;77.90
25953;DHT22;13750;50.804;8.764;2023-07-22T04:17:50;12.50;77.90
25953;DHT22;13750;50.804;8.764;2023-07-22T04:20:15;12.40;78.00
25953;DHT22;13750;50.804;8.764;2023-07-22T04:22:41;12.40;78.10
25953;DHT22;13750;50.804;8.764;2023-07-22T04:25:08;12.40;78.50
25953;DHT22;13750;50.804;8.764;2023-07-22T04:27:34;12.40;78.70
25953;DHT22;13750;50.804;8.764;2023-07-22T04:30:00;12.30;78.90
25953;DHT22;13750;50.804;8.764;2023-07-22T04:32:25;12.40;79.10
25953;DHT22;13750;50.804;8.764;2023-07-22T04:34:51;12.40;79.20
25953;DHT22;13750;50.804;8.764;2023-07-22T04:37:16;12.40;79.20
25953;DHT22;13750;50.804;8.764;2023-07-22T04:39:42;12.50;79.10
25953;DHT22;13750;50.804;8.764;2023-07-22T04:42:08;12.50;79.00
25953;DHT22;13750;50.804;8.764;2023-07-22T04:44:33;12.50;78.90
25953;DHT22;13750;50.804;8.764;2023-07-22T04:46:59;12.50;78.90
25953;DHT22;13750;50.804;8.764;2023-07-22T04:49:25;12.50;78.90
25953;DHT22;13750;50.804;8.764;2023-07-22T04:51:51;12.50;78.70
25953;DHT22;13750;50.804;8.764;2023-07-22T04:54:16;12.40;78.90
25953;DHT22;13750;50.804;8.764;2023-07-22T04:56:43;12.40;79.10
25953;DHT22;13750;50.804;8.764;2023-07-22T04:59:09;12.40;79.20
25953;DHT22;13750;50.804;8.764;2023-07-22T05:01:35;12.40;79.10
25953;DHT22;13750;50.804;8.764;2023-07-22T05:04:00;12.30;79.10
25953;DHT22;13750;50.804;8.764;2023-07-22T05:06:28;12.30;79.30
25953;DHT22;13750;50.804;8.764;2023-07-22T05:08:54;12.20;79.50
25953;DHT22;13750;50.804;8.764;2023-07-22T05:11:19;12.20;79.70
25953;DHT22;13750;50.804;8.764;2023-07-22T05:13:45;12.20;79.80
25953;DHT22;13750;50.804;8.764;2023-07-22T05:16:10;12.20;80.00
25953;DHT22;13750;50.804;8.764;2023-07-22T05:18:36;12.20;80.20
25953;DHT22;13750;50.804;8.764;2023-07-22T05:21:03;12.20;80.40
25953;DHT22;13750;50.804;8.764;2023-07-22T05:23:28;12.20;80.50
25953;DHT22;13750;50.804;8.764;2023-07-22T05:25:54;12.30;80.70
25953;DHT22;13750;50.804;8.764;2023-07-22T05:28:19;12.40;80.70
25953;DHT22;13750;50.804;8.764;2023-07-22T05:30:45;12.40;80.70
25953;DHT22;13750;50.804;8.764;2023-07-22T05:33:11;12.40;80.70
25953;DHT22;13750;50.804;8.764;2023-07-22T05:35:36;12.50;80.60
25953;DHT22;13750;50.804;8.764;2023-07-22T05:38:02;12.50;80.70
25953;DHT22;13750;50.804;8.764;2023-07-22T05:40:29;12.60;80.70
25953;DHT22;13750;50.804;8.764;2023-07-22T05:42:56;12.60;80.60
25953;DHT22;13750;50.804;8.764;2023-07-22T05:45:21;12.60;80.70
25953;DHT22;13750;50.804;8.764;2023-07-22T05:47:47;12.70;80.70
25953;DHT22;13750;50.804;8.764;2023-07-22T05:50:13;12.80;80.80
25953;DHT22;13750;50.804;8.764;2023-07-22T05:52:38;12.90;80.70
25953;DHT22;13750;50.804;8.764;2023-07-22T05:55:04;12.90;80.70
25953;DHT22;13750;50.804;8.764;2023-07-22T05:57:30;13.00;80.70
25953;DHT22;13750;50.804;8.764;2023-07-22T05:59:56;13.00;80.50
25953;DHT22;13750;50.804;8.764;2023-07-22T06:02:21;13.10;80.40
25953;DHT22;13750;50.804;8.764;2023-07-22T06:04:47;13.10;80.50
25953;DHT22;13750;50.804;8.764;2023-07-22T06:07:13;13.20;80.60
25953;DHT22;13750;50.804;8.764;2023-07-22T06:09:39;13.20;80.60
25953;DHT22;13750;50.804;8.764;2023-07-22T06:12:05;13.30;80.60
25953;DHT22;13750;50.804;8.764;2023-07-22T06:14:30;13.40;80.70
25953;DHT22;13750;50.804;8.764;2023-07-22T06:16:56;13.40;80.60
25953;DHT22;13750;50.804;8.764;2023-07-22T06:19:21;13.50;80.50
25953;DHT22;13750;50.804;8.764;2023-07-22T06:21:49;13.60;80.60
25953;DHT22;13750;50.804;8.764;2023-07-22T06:24:14;13.60;80.70
25953;DHT22;13750;50.804;8.764;2023-07-22T06:26:40;13.70;80.60
25953;DHT22;13750;50.804;8.764;2023-07-22T06:29:05;13.70;80.60
25953;DHT22;13750;50.804;8.764;2023-07-22T06:31:31;13.80;80.60
25953;DHT22;13750;50.804;8.764;2023-07-22T06:33:57;13.90;80.50
25953;DHT22;13750;50.804;8.764;2023-07-22T06:36:25;13.90;80.40
25953;DHT22;13750;50.804;8.764;2023-07-22T06:38:50;14.00;80.30
25953;DHT22;13750;50.804;8.764;2023-07-22T06:41:16;14.00;80.10
25953;DHT22;13750;50.804;8.764;2023-07-22T06:43:41;14.10;80.00
25953;DHT22;13750;50.804;8.764;2023-07-22T06:46:07;14.10;80.00
25953;DHT22;13750;50.804;8.764;2023-07-22T06:48:32;14.20;79.90
25953;DHT22;13750;50.804;8.764;2023-07-22T06:50:58;14.30;79.80
25953;DHT22;13750;50.804;8.764;2023-07-22T06:53:23;14.30;79.60
25953;DHT22;13750;50.804;8.764;2023-07-22T06:55:50;14.40;79.50
25953;DHT22;13750;50.804;8.764;2023-07-22T06:58:19;14.50;79.30
25953;DHT22;13750;50.804;8.764;2023-07-22T07:00:45;14.50;79.20
25953;DHT22;13750;50.804;8.764;2023-07-22T07:03:11;14.60;79.00
25953;DHT22;13750;50.804;8.764;2023-07-22T07:05:36;14.60;78.90
25953;DHT22;13750;50.804;8.764;2023-07-22T07:08:02;14.70;78.70
25953;DHT22;13750;50.804;8.764;2023-07-22T07:10:29;14.70;78.50
25953;DHT22;13750;50.804;8.764;2023-07-22T07:12:54;14.70;78.40
25953;DHT22;13750;50.804;8.764;2023-07-22T07:15:20;14.80;78.30
25953;DHT22;13750;50.804;8.764;2023-07-22T07:17:46;14.90;78.20
25953;DHT22;13750;50.804;8.764;2023-07-22T07:20:14;15.00;77.90
25953;DHT22;13750;50.804;8.764;2023-07-22T07:22:39;15.00;77.70
25953;DHT22;13750;50.804;8.764;2023-07-22T07:25:05;15.00;77.60
25953;DHT22;13750;50.804;8.764;2023-07-22T07:27:31;15.10;77.60
25953;DHT22;13750;50.804;8.764;2023-07-22T07:29:57;15.10;77.40
25953;DHT22;13750;50.804;8.764;2023-07-22T07:32:22;15.10;77.30
25953;DHT22;13750;50.804;8.764;2023-07-22T07:34:49;15.20;77.20
25953;DHT22;13750;50.804;8.764;2023-07-22T07:37:15;15.30;76.90
25953;DHT22;13750;50.804;8.764;2023-07-22T07:39:40;15.30;76.70
25953;DHT22;13750;50.804;8.764;2023-07-22T07:42:06;15.40;76.50
25953;DHT22;13750;50.804;8.764;2023-07-22T07:44:32;15.50;76.20
25953;DHT22;13750;50.804;8.764;2023-07-22T07:46:57;15.50;76.20
25953;DHT22;13750;50.804;8.764;2023-07-22T07:49:23;15.60;75.90
25953;DHT22;13750;50.804;8.764;2023-07-22T07:51:49;15.60;75.50
25953;DHT22;13750;50.804;8.764;2023-07-22T07:54:14;15.60;75.30
25953;DHT22;13750;50.804;8.764;2023-07-22T07:56:40;15.70;75.00
25953;DHT22;13750;50.804;8.764;2023-07-22T07:59:06;15.70;74.80
25953;DHT22;13750;50.804;8.764;2023-07-22T08:01:34;15.70;74.70
25953;DHT22;13750;50.804;8.764;2023-07-22T08:04:00;15.80;74.50
25953;DHT22;13750;50.804;8.764;2023-07-22T08:06:26;15.90;74.30
25953;DHT22;13750;50.804;8.764;2023-07-22T08:08:52;15.90;74.10
25953;DHT22;13750;50.804;8.764;2023-07-22T08:11:17;15.90;73.80
25953;DHT22;13750;50.804;8.764;2023-07-22T08:13:44;16.00;73.60
25953;DHT22;13750;50.804;8.764;2023-07-22T08:16:12;16.10;73.10
25953;DHT22;13750;50.804;8.764;2023-07-22T08:18:38;16.10;72.70
25953;DHT22;13750;50.804;8.764;2023-07-22T08:21:05;16.20;72.40
25953;DHT22;13750;50.804;8.764;2023-07-22T08:23:32;16.20;72.00
25953;DHT22;13750;50.804;8.764;2023-07-22T08:25:58;16.20;71.70
25953;DHT22;13750;50.804;8.764;2023-07-22T08:28:24;16.30;71.30
25953;DHT22;13750;50.804;8.764;2023-07-22T08:30:49;16.40;71.00
25953;DHT22;13750;50.804;8.764;2023-07-22T08:33:16;16.50;70.60
25953;DHT22;13750;50.804;8.764;2023-07-22T08:35:42;16.60;70.00
25953;DHT22;13750;50.804;8.764;2023-07-22T08:38:08;16.60;69.70
25953;DHT22;13750;50.804;8.764;2023-07-22T08:40:34;16.70;69.30
25953;DHT22;13750;50.804;8.764;2023-07-22T08:43:02;16.70;69.00
25953;DHT22;13750;50.804;8.764;2023-07-22T08:45:30;16.80;68.70
25953;DHT22;13750;50.804;8.764;2023-07-22T08:47:58;16.80;68.50
25953;DHT22;13750;50.804;8.764;2023-07-22T08:50:29;16.90;68.60
25953;DHT22;13750;50.804;8.764;2023-07-22T08:52:57;17.00;68.50
25953;DHT22;13750;50.804;8.764;2023-07-22T08:55:23;17.10;68.10
25953;DHT22;13750;50.804;8.764;2023-07-22T08:57:50;17.20;67.60
25953;DHT22;13750;50.804;8.764;2023-07-22T09:00:16;17.30;67.30
25953;DHT22;13750;50.804;8.764;2023-07-22T09:02:43;17.60;66.80
25953;DHT22;13750;50.804;8.764;2023-07-22T09:05:10;17.70;66.10
25953;DHT22;13750;50.804;8.764;2023-07-22T09:07:37;17.90;65.60
25953;DHT22;13750;50.804;8.764;2023-07-22T09:10:05;18.00;65.00
25953;DHT22;13750;50.804;8.764;2023-07-22T09:12:31;18.10;64.70
25953;DHT22;13750;50.804;8.764;2023-07-22T09:15:10;18.20;63.90
25953;DHT22;13750;50.804;8.764;2023-07-22T09:17:38;18.30;62.60
25953;DHT22;13750;50.804;8.764;2023-07-22T09:20:04;18.40;61.40
25953;DHT22;13750;50.804;8.764;2023-07-22T09:22:31;18.50;60.60
25953;DHT22;13750;50.804;8.764;2023-07-22T09:25:19;18.60;60.10
25953;DHT22;13750;50.804;8.764;2023-07-22T09:27:50;18.60;59.50
25953;DHT22;13750;50.804;8.764;2023-07-22T09:32:51;18.70;58.80
25953;DHT22;13750;50.804;8.764;2023-07-22T09:35:17;18.80;58.50
25953;DHT22;13750;50.804;8.764;2023-07-22T09:37:44;18.90;57.80
25953;DHT22;13750;50.804;8.764;2023-07-22T09:40:21;19.00;57.60
25953;DHT22;13750;50.804;8.764;2023-07-22T09:42:51;19.10;57.60
25953;DHT22;13750;50.804;8.764;2023-07-22T09:45:17;19.20;57.30
25953;DHT22;13750;50.804;8.764;2023-07-22T09:47:45;19.40;56.60
25953;DHT22;13750;50.804;8.764;2023-07-22T09:50:16;19.50;56.30
25953;DHT22;13750;50.804;8.764;2023-07-22T09:53:02;19.60;55.70
25953;DHT22;13750;50.804;8.764;2023-07-22T09:55:30;19.60;55.40
25953;DHT22;13750;50.804;8.764;2023-07-22T09:58:04;19.60;55.00
25953;DHT22;13750;50.804;8.764;2023-07-22T10:00:35;19.70;53.90
25953;DHT22;13750;50.804;8.764;2023-07-22T10:03:02;19.70;53.40
25953;DHT22;13750;50.804;8.764;2023-07-22T10:05:33;19.70;53.10
25953;DHT22;13750;50.804;8.764;2023-07-22T10:07:59;19.80;53.10
25953;DHT22;13750;50.804;8.764;2023-07-22T10:10:32;19.90;52.80
25953;DHT22;13750;50.804;8.764;2023-07-22T10:12:58;20.00;52.90
25953;DHT22;13750;50.804;8.764;2023-07-22T10:15:31;20.00;53.10
25953;DHT22;13750;50.804;8.764;2023-07-22T10:18:00;20.10;53.30
25953;DHT22;13750;50.804;8.764;2023-07-22T10:20:26;20.20;52.80
25953;DHT22;13750;50.804;8.764;2023-07-22T10:22:51;20.20;51.90
25953;DHT22;13750;50.804;8.764;2023-07-22T10:25:21;20.20;51.40
25953;DHT22;13750;50.804;8.764;2023-07-22T10:27:48;20.20;50.80
25953;DHT22;13750;50.804;8.764;2023-07-22T10:30:16;20.30;50.90
25953;DHT22;13750;50.804;8.764;2023-07-22T10:32:44;20.30;50.40
25953;DHT22;13750;50.804;8.764;2023-07-22T10:35:37;20.30;48.80
25953;DHT22;13750;50.804;8.764;2023-07-22T10:38:13;20.30;48.70
25953;DHT22;13750;50.804;8.764;2023-07-22T10:43:11;20.20;48.40
25953;DHT22;13750;50.804;8.764;2023-07-22T10:45:42;20.20;48.50
25953;DHT22;13750;50.804;8.764;2023-07-22T10:48:08;20.10;48.00
25953;DHT22;13750;50.804;8.764;2023-07-22T10:50:48;20.20;47.80
25953;DHT22;13750;50.804;8.764;2023-07-22T10:53:28;20.10;47.00
25953;DHT22;13750;50.804;8.764;2023-07-22T11:06:59;20.30;48.40
25953;DHT22;13750;50.804;8.764;2023-07-22T11:14:23;20.50;48.10
25953;DHT22;13750;50.804;8.764;2023-07-22T11:16:49;20.60;48.30
25953;DHT22;13750;50.804;8.764;2023-07-22T11:19:16;20.60;48.20
25953;DHT22;13750;50.804;8.764;2023-07-22T11:21:43;20.60;48.10
25953;DHT22;13750;50.804;8.764;2023-07-22T11:24:08;20.60;48.00
25953;DHT22;13750;50.804;8.764;2023-07-22T11:26:35;20.60;48.30
25953;DHT22;13750;50.804;8.764;2023-07-22T11:29:02;20.70;48.60
25953;DHT22;13750;50.804;8.764;2023-07-22T11:31:34;20.80;48.60
25953;DHT22;13750;50.804;8.764;2023-07-22T11:34:05;20.90;48.50
25953;DHT22;13750;50.804;8.764;2023-07-22T11:36:31;20.90;48.30
25953;DHT22;13750;50.804;8.764;2023-07-22T11:39:07;21.00;47.90
25953;DHT22;13750;50.804;8.764;2023-07-22T11:41:34;20.90;46.90
25953;DHT22;13750;50.804;8.764;2023-07-22T11:44:02;20.90;46.70
25953;DHT22;13750;50.804;8.764;2023-07-22T11:46:28;20.90;46.20
25953;DHT22;13750;50.804;8.764;2023-07-22T11:48:55;20.90;46.00
25953;DHT22;13750;50.804;8.764;2023-07-22T11:51:23;21.00;46.40
25953;DHT22;13750;50.804;8.764;2023-07-22T11:53:53;21.10;46.80
25953;DHT22;13750;50.804;8.764;2023-07-22T11:56:25;21.10;46.50
25953;DHT22;13750;50.804;8.764;2023-07-22T11:58:52;21.20;46.00
25953;DHT22;13750;50.804;8.764;2023-07-22T12:01:18;21.30;45.60
25953;DHT22;13750;50.804;8.764;2023-07-22T12:03:44;21.30;45.30
25953;DHT22;13750;50.804;8.764;2023-07-22T12:06:10;21.30;45.30
25953;DHT22;13750;50.804;8.764;2023-07-22T12:08:42;21.40;45.00
25953;DHT22;13750;50.804;8.764;2023-07-22T12:11:14;21.40;44.60
25953;DHT22;13750;50.804;8.764;2023-07-22T12:13:41;21.40;43.60
25953;DHT22;13750;50.804;8.764;2023-07-22T12:16:10;21.40;43.60
25953;DHT22;13750;50.804;8.764;2023-07-22T12:18:46;21.40;44.10
25953;DHT22;13750;50.804;8.764;2023-07-22T12:21:12;21.40;43.90
25953;DHT22;13750;50.804;8.764;2023-07-22T12:23:38;21.40;43.60
25953;DHT22;13750;50.804;8.764;2023-07-22T12:26:05;21.40;43.40
25953;DHT22;13750;50.804;8.764;2023-07-22T12:28:31;21.40;43.50
25953;DHT22;13750;50.804;8.764;2023-07-22T12:30:56;21.50;43.70
25953;DHT22;13750;50.804;8.764;2023-07-22T12:33:23;21.50;43.40
25953;DHT22;13750;50.804;8.764;2023-07-22T12:35:56;21.50;42.90
25953;DHT22;13750;50.804;8.764;2023-07-22T12:38:22;21.60;43.10
25953;DHT22;13750;50.804;8.764;2023-07-22T12:40:48;21.60;43.10
25953;DHT22;13750;50.804;8.764;2023-07-22T12:43:14;21.70;43.00
25953;DHT22;13750;50.804;8.764;2023-07-22T12:45:39;21.70;42.70
25953;DHT22;13750;50.804;8.764;2023-07-22T12:48:05;21.80;42.70
25953;DHT22;13750;50.804;8.764;2023-07-22T12:50:31;21.80;42.30
25953;DHT22;13750;50.804;8.764;2023-07-22T12:52:57;21.80;42.60
25953;DHT22;13750;50.804;8.764;2023-07-22T12:55:23;21.80;42.90
25953;DHT22;13750;50.804;8.764;2023-07-22T12:57:49;21.80;43.20
25953;DHT22;13750;50.804;8.764;2023-07-22T13:00:14;21.90;43.20
25953;DHT22;13750;50.804;8.764;2023-07-22T13:02:40;21.90;43.40
25953;DHT22;13750;50.804;8.764;2023-07-22T13:05:06;22.00;43.40
25953;DHT22;13750;50.804;8.764;2023-07-22T13:07:32;22.00;43.50
25953;DHT22;13750;50.804;8.764;2023-07-22T13:09:58;22.00;43.40
25953;DHT22;13750;50.804;8.764;2023-07-22T13:12:26;22.00;43.40
25953;DHT22;13750;50.804;8.764;2023-07-22T13:14:51;22.10;43.00
25953;DHT22;13750;50.804;8.764;2023-07-22T13:17:17;22.00;42.90
25953;DHT22;13750;50.804;8.764;2023-07-22T13:19:43;22.00;42.60
25953;DHT22;13750;50.804;8.764;2023-07-22T13:22:08;22.00;42.30
25953;DHT22;13750;50.804;8.764;2023-07-22T13:24:34;22.00;42.50
25953;DHT22;13750;50.804;8.764;2023-07-22T13:27:00;22.00;42.90
25953;DHT22;13750;50.804;8.764;2023-07-22T13:29:26;22.00;43.20
25953;DHT22;13750;50.804;8.764;2023-07-22T13:31:53;22.10;43.20
25953;DHT22;13750;50.804;8.764;2023-07-22T13:34:18;22.10;43.20
25953;DHT22;13750;50.804;8.764;2023-07-22T13:36:44;22.20;43.30
25953;DHT22;13750;50.804;8.764;2023-07-22T13:39:09;22.30;42.70
25953;DHT22;13750;50.804;8.764;2023-07-22T13:41:35;22.40;42.00
25953;DHT22;13750;50.804;8.764;2023-07-22T13:44:00;22.50;41.90
25953;DHT22;13750;50.804;8.764;2023-07-22T13:46:26;22.60;42.20
25953;DHT22;13750;50.804;8.764;2023-07-22T13:48:52;22.60;42.30
25953;DHT22;13750;50.804;8.764;2023-07-22T13:51:17;22.70;42.30
25953;DHT22;13750;50.804;8.764;2023-07-22T13:53:43;22.70;41.80
25953;DHT22;13750;50.804;8.764;2023-07-22T13:56:08;22.70;41.80
25953;DHT22;13750;50.804;8.764;2023-07-22T13:58:34;22.70;41.90
25953;DHT22;13750;50.804;8.764;2023-07-22T14:00:59;22.70;42.00
25953;DHT22;13750;50.804;8.764;2023-07-22T14:03:25;22.70;42.00
25953;DHT22;13750;50.804;8.764;2023-07-22T14:05:51;22.60;41.90
25953;DHT22;13750;50.804;8.764;2023-07-22T14:08:16;22.60;41.40
25953;DHT22;13750;50.804;8.764;2023-07-22T14:10:42;22.60;41.40
25953;DHT22;13750;50.804;8.764;2023-07-22T14:13:08;22.60;41.30
25953;DHT22;13750;50.804;8.764;2023-07-22T14:15:33;22.70;41.00
25953;DHT22;13750;50.804;8.764;2023-07-22T14:17:59;22.60;40.90
25953;DHT22;13750;50.804;8.764;2023-07-22T14:20:24;22.60;41.00
25953;DHT22;13750;50.804;8.764;2023-07-22T14:22:50;22.60;41.10
25953;DHT22;13750;50.804;8.764;2023-07-22T14:25:16;22.60;41.50
25953;DHT22;13750;50.804;8.764;2023-07-22T14:27:42;22.60;41.60
25953;DHT22;13750;50.804;8.764;2023-07-22T14:30:08;22.60;41.70
25953;DHT22;13750;50.804;8.764;2023-07-22T14:32:34;22.60;41.50
25953;DHT22;13750;50.804;8.764;2023-07-22T14:35:00;22.60;41.60
25953;DHT22;13750;50.804;8.764;2023-07-22T14:37:25;22.60;41.70
25953;DHT22;13750;50.804;8.764;2023-07-22T14:39:51;22.60;41.60
25953;DHT22;13750;50.804;8.764;2023-07-22T14:42:17;22.50;41.80
25953;DHT22;13750;50.804;8.764;2023-07-22T14:44:42;22.50;41.80
25953;DHT22;13750;50.804;8.764;2023-07-22T14:47:08;22.50;41.70
25953;DHT22;13750;50.804;8.764;2023-07-22T14:49:34;22.50;42.30
25953;DHT22;13750;50.804;8.764;2023-07-22T14:51:59;22.60;42.40
25953;DHT22;13750;50.804;8.764;2023-07-22T14:54:25;22.60;42.50
25953;DHT22;13750;50.804;8.764;2023-07-22T14:56:51;22.60;42.50
25953;DHT22;13750;50.804;8.764;2023-07-22T14:59:16;22.60;42.40
25953;DHT22;13750;50.804;8.764;2023-07-22T15:01:42;22.60;42.20
25953;DHT22;13750;50.804;8.764;2023-07-22T15:04:08;22.60;42.40
25953;DHT22;13750;50.804;8.764;2023-07-22T15:06:34;22.60;42.30
25953;DHT22;13750;50.804;8.764;2023-07-22T15:09:01;22.60;42.30
25953;DHT22;13750;50.804;8.764;2023-07-22T15:11:27;22.60;42.60
25953;DHT22;13750;50.804;8.764;2023-07-22T15:13:53;22.70;42.80
25953;DHT22;13750;50.804;8.764;2023-07-22T15:16:18;22.80;42.30
25953;DHT22;13750;50.804;8.764;2023-07-22T15:18:44;22.80;42.20
25953;DHT22;13750;50.804;8.764;2023-07-22T15:21:09;22.80;42.00
25953;DHT22;13750;50.804;8.764;2023-07-22T15:23:35;22.80;41.80
25953;DHT22;13750;50.804;8.764;2023-07-22T15:26:01;22.80;41.60
25953;DHT22;13750;50.804;8.764;2023-07-22T15:28:26;22.80;42.00
25953;DHT22;13750;50.804;8.764;2023-07-22T15:30:55;22.90;42.20
25953;DHT22;13750;50.804;8.764;2023-07-22T15:33:21;23.00;41.80
25953;DHT22;13750;50.804;8.764;2023-07-22T15:35:47;23.00;41.10
25953;DHT22;13750;50.804;8.764;2023-07-22T15:38:13;23.00;40.80
25953;DHT22;13750;50.804;8.764;2023-07-22T15:40:39;22.90;40.90
25953;DHT22;13750;50.804;8.764;2023-07-22T15:43:04;22.90;41.00
25953;DHT22;13750;50.804;8.764;2023-07-22T15:45:30;22.90;41.40
25953;DHT22;13750;50.804;8.764;2023-07-22T15:47:56;22.90;40.80